메인 페이지
METAR-TAF:

METAR-TAF

공항 :

푸나푸티, 투발루

푸나푸티 국제공항

위도: 08-31S, 경도: 179-13E, 고도: 1m

현재 날씨관측

예보는 24분 전, 07:00시(UTC)에 발표되었습니다.
북북동8kt
온도 27°C
습도 84%
기압 1008 hPa
시정 10km 이상
고도 1900ft 상공 구름 보통, 적란운.
고도 10000ft 상공 흐림
약한소나기

METAR: NGFU 250700Z 02008KT 9999 -SHRA SCT019CB OVC100 27/24 Q1008

시각: 19:24 (07:24 UTC)

예보

예보는 1 시간 45분 전, 05:39시(UTC)에 발표되었습니다.
예보 대상 시간: 25일 06시부터 26일 06시까지 (UTC)
8kt
시정 10km 이상
고도 1800ft 상공 구름 보통
고도 3500ft 상공 구름 보통
고도 10000ft 상공 구름 많음
약한소나기
확률 30% :
일시적
25일 06시부터 25일 12시까지 (UTC)
시정: 5000m
고도 1700ft 상공 구름 조금, 적란운.
뇌우, 비
확률 40% :
일시적
25일 12시부터 26일 06시까지 (UTC)
10kt, 순간 최대 풍속 20kt
시정: 3000m
고도 1500ft 상공 구름 많음
고도 1700ft 상공 구름 보통, 적란운.
뇌우, 비

TAF: NGFU 250539Z 2506/2606 01008KT 9999 -SHRA SCT018 SCT035 BKN100 PROB30 TEMPO 2506/2512 5000 TSRA FEW017CB PROB40 TEMPO 2512/2606 01010G20KT 3000 TSRA BKN015 SCT017CB

4,000개 이상의 공항 관측 자료 및 예보 (METAR 및 TAF 보고).

지도상에서 검색 가능한 기상관측소가 노란 점과 빨간 점으로 표시되어 있습니다.

기상관측소 명을 보려면 표시 위로 마우스를 이동하세요.

날씨 관측과 예보를 보려면 클릭하세요.

지도 변경 : 확대하려면 엑스 표시가 있는 녹색 버튼, 축소하려면 빼기 표시가 있는 녹색 버튼, 다음 페이지의 지도를 보려면 녹색 화살표를 클릭하세요.


METAR-TAF: